sensor_id;sensor_type;location;lat;lon;timestamp;P1;durP1;ratioP1;P2;durP2;ratioP2
20567;SDS011;10442;49.932;11.592;2022-12-10T00:01:21;21.40;;;18.20;;
20567;SDS011;10442;49.932;11.592;2022-12-10T00:03:50;23.20;;;18.80;;
20567;SDS011;10442;49.932;11.592;2022-12-10T00:06:19;20.37;;;17.57;;
20567;SDS011;10442;49.932;11.592;2022-12-10T00:08:49;19.77;;;17.37;;
20567;SDS011;10442;49.932;11.592;2022-12-10T00:11:18;20.17;;;16.27;;
20567;SDS011;10442;49.932;11.592;2022-12-10T00:13:46;23.50;;;18.37;;
20567;SDS011;10442;49.932;11.592;2022-12-10T00:16:15;22.00;;;17.63;;
20567;SDS011;10442;49.932;11.592;2022-12-10T00:18:44;19.70;;;16.70;;
20567;SDS011;10442;49.932;11.592;2022-12-10T00:21:14;24.63;;;19.20;;
20567;SDS011;10442;49.932;11.592;2022-12-10T00:23:43;21.73;;;16.17;;
20567;SDS011;10442;49.932;11.592;2022-12-10T00:26:30;22.30;;;17.97;;
20567;SDS011;10442;49.932;11.592;2022-12-10T00:29:00;21.40;;;17.03;;
20567;SDS011;10442;49.932;11.592;2022-12-10T00:31:30;24.33;;;17.40;;
20567;SDS011;10442;49.932;11.592;2022-12-10T00:34:00;20.33;;;16.73;;
20567;SDS011;10442;49.932;11.592;2022-12-10T00:36:31;19.97;;;15.97;;
20567;SDS011;10442;49.932;11.592;2022-12-10T00:39:20;20.17;;;17.60;;
20567;SDS011;10442;49.932;11.592;2022-12-10T00:41:48;23.50;;;18.73;;
20567;SDS011;10442;49.932;11.592;2022-12-10T00:44:15;22.07;;;18.77;;
20567;SDS011;10442;49.932;11.592;2022-12-10T00:46:43;19.30;;;15.57;;
20567;SDS011;10442;49.932;11.592;2022-12-10T00:49:12;20.63;;;16.50;;
20567;SDS011;10442;49.932;11.592;2022-12-10T00:51:40;17.30;;;15.10;;
20567;SDS011;10442;49.932;11.592;2022-12-10T00:54:07;23.57;;;17.30;;
20567;SDS011;10442;49.932;11.592;2022-12-10T00:56:35;21.37;;;17.83;;
20567;SDS011;10442;49.932;11.592;2022-12-10T00:59:02;19.40;;;15.83;;
20567;SDS011;10442;49.932;11.592;2022-12-10T01:01:32;15.80;;;14.27;;
20567;SDS011;10442;49.932;11.592;2022-12-10T01:04:05;18.60;;;15.60;;
20567;SDS011;10442;49.932;11.592;2022-12-10T01:09:11;19.10;;;15.97;;
20567;SDS011;10442;49.932;11.592;2022-12-10T01:11:41;16.63;;;14.17;;
20567;SDS011;10442;49.932;11.592;2022-12-10T01:14:11;20.07;;;15.63;;
20567;SDS011;10442;49.932;11.592;2022-12-10T01:16:41;17.47;;;15.40;;
20567;SDS011;10442;49.932;11.592;2022-12-10T01:19:09;16.87;;;14.93;;
20567;SDS011;10442;49.932;11.592;2022-12-10T01:21:37;19.17;;;15.73;;
20567;SDS011;10442;49.932;11.592;2022-12-10T01:24:05;17.00;;;14.03;;
20567;SDS011;10442;49.932;11.592;2022-12-10T01:26:33;22.10;;;15.37;;
20567;SDS011;10442;49.932;11.592;2022-12-10T01:29:02;19.73;;;16.37;;
20567;SDS011;10442;49.932;11.592;2022-12-10T01:31:32;18.70;;;16.00;;
20567;SDS011;10442;49.932;11.592;2022-12-10T01:34:02;18.37;;;15.10;;
20567;SDS011;10442;49.932;11.592;2022-12-10T01:36:36;19.57;;;16.40;;
20567;SDS011;10442;49.932;11.592;2022-12-10T01:39:06;19.60;;;16.97;;
20567;SDS011;10442;49.932;11.592;2022-12-10T01:41:40;20.03;;;17.23;;
20567;SDS011;10442;49.932;11.592;2022-12-10T01:46:48;20.13;;;15.83;;
20567;SDS011;10442;49.932;11.592;2022-12-10T01:49:31;19.63;;;15.90;;
20567;SDS011;10442;49.932;11.592;2022-12-10T01:52:04;18.80;;;16.60;;
20567;SDS011;10442;49.932;11.592;2022-12-10T01:54:35;20.70;;;16.80;;
20567;SDS011;10442;49.932;11.592;2022-12-10T01:57:16;18.07;;;14.87;;
20567;SDS011;10442;49.932;11.592;2022-12-10T01:59:47;19.93;;;15.47;;
20567;SDS011;10442;49.932;11.592;2022-12-10T02:05:17;18.57;;;15.50;;
20567;SDS011;10442;49.932;11.592;2022-12-10T02:07:57;21.23;;;16.70;;
20567;SDS011;10442;49.932;11.592;2022-12-10T02:13:22;21.97;;;16.93;;
20567;SDS011;10442;49.932;11.592;2022-12-10T02:16:15;18.53;;;16.53;;
20567;SDS011;10442;49.932;11.592;2022-12-10T02:19:02;17.63;;;15.83;;
20567;SDS011;10442;49.932;11.592;2022-12-10T02:21:40;19.03;;;16.50;;
20567;SDS011;10442;49.932;11.592;2022-12-10T02:24:13;18.17;;;15.47;;
20567;SDS011;10442;49.932;11.592;2022-12-10T02:26:50;21.60;;;17.47;;
20567;SDS011;10442;49.932;11.592;2022-12-10T02:29:28;16.93;;;15.07;;
20567;SDS011;10442;49.932;11.592;2022-12-10T02:35:05;19.13;;;15.83;;
20567;SDS011;10442;49.932;11.592;2022-12-10T02:37:40;19.73;;;16.43;;
20567;SDS011;10442;49.932;11.592;2022-12-10T02:40:16;19.27;;;16.67;;
20567;SDS011;10442;49.932;11.592;2022-12-10T02:42:52;20.00;;;17.27;;
20567;SDS011;10442;49.932;11.592;2022-12-10T02:45:22;21.20;;;16.17;;
20567;SDS011;10442;49.932;11.592;2022-12-10T02:47:54;18.07;;;15.37;;
20567;SDS011;10442;49.932;11.592;2022-12-10T02:50:27;21.40;;;17.87;;
20567;SDS011;10442;49.932;11.592;2022-12-10T02:52:55;18.20;;;16.20;;
20567;SDS011;10442;49.932;11.592;2022-12-10T02:55:22;21.30;;;17.10;;
20567;SDS011;10442;49.932;11.592;2022-12-10T02:58:03;22.53;;;17.30;;
20567;SDS011;10442;49.932;11.592;2022-12-10T03:00:47;18.83;;;15.50;;
20567;SDS011;10442;49.932;11.592;2022-12-10T03:09:04;19.13;;;15.90;;
20567;SDS011;10442;49.932;11.592;2022-12-10T03:11:34;20.60;;;17.57;;
20567;SDS011;10442;49.932;11.592;2022-12-10T03:14:13;19.63;;;17.63;;
20567;SDS011;10442;49.932;11.592;2022-12-10T03:16:48;22.87;;;18.67;;
20567;SDS011;10442;49.932;11.592;2022-12-10T03:19:20;20.97;;;15.47;;
20567;SDS011;10442;49.932;11.592;2022-12-10T03:21:51;20.87;;;16.93;;
20567;SDS011;10442;49.932;11.592;2022-12-10T03:24:25;24.87;;;18.13;;
20567;SDS011;10442;49.932;11.592;2022-12-10T03:26:54;20.83;;;17.60;;
20567;SDS011;10442;49.932;11.592;2022-12-10T03:29:26;21.00;;;16.70;;
20567;SDS011;10442;49.932;11.592;2022-12-10T03:31:57;20.77;;;17.17;;
20567;SDS011;10442;49.932;11.592;2022-12-10T03:34:27;20.80;;;16.50;;
20567;SDS011;10442;49.932;11.592;2022-12-10T03:36:55;21.17;;;17.07;;
20567;SDS011;10442;49.932;11.592;2022-12-10T03:39:23;19.30;;;15.97;;
20567;SDS011;10442;49.932;11.592;2022-12-10T03:41:51;17.93;;;16.03;;
20567;SDS011;10442;49.932;11.592;2022-12-10T03:44:28;20.90;;;16.93;;
20567;SDS011;10442;49.932;11.592;2022-12-10T03:46:57;18.80;;;16.93;;
20567;SDS011;10442;49.932;11.592;2022-12-10T03:49:25;17.97;;;15.03;;
20567;SDS011;10442;49.932;11.592;2022-12-10T03:51:52;19.60;;;16.97;;
20567;SDS011;10442;49.932;11.592;2022-12-10T03:54:20;17.87;;;15.97;;
20567;SDS011;10442;49.932;11.592;2022-12-10T03:56:47;21.33;;;15.43;;
20567;SDS011;10442;49.932;11.592;2022-12-10T03:59:14;21.23;;;16.23;;
20567;SDS011;10442;49.932;11.592;2022-12-10T04:01:42;19.87;;;16.40;;
20567;SDS011;10442;49.932;11.592;2022-12-10T04:04:09;19.97;;;15.43;;
20567;SDS011;10442;49.932;11.592;2022-12-10T04:06:37;17.37;;;15.53;;
20567;SDS011;10442;49.932;11.592;2022-12-10T04:09:06;19.70;;;15.93;;
20567;SDS011;10442;49.932;11.592;2022-12-10T04:11:36;23.47;;;17.57;;
20567;SDS011;10442;49.932;11.592;2022-12-10T04:14:03;22.93;;;17.27;;
20567;SDS011;10442;49.932;11.592;2022-12-10T04:16:49;20.27;;;17.47;;
20567;SDS011;10442;49.932;11.592;2022-12-10T04:19:17;21.47;;;17.67;;
20567;SDS011;10442;49.932;11.592;2022-12-10T04:21:45;21.57;;;17.60;;
20567;SDS011;10442;49.932;11.592;2022-12-10T04:24:32;20.90;;;16.73;;
20567;SDS011;10442;49.932;11.592;2022-12-10T04:27:26;19.43;;;15.33;;
20567;SDS011;10442;49.932;11.592;2022-12-10T04:29:56;18.27;;;16.37;;
20567;SDS011;10442;49.932;11.592;2022-12-10T04:32:25;20.30;;;16.17;;
20567;SDS011;10442;49.932;11.592;2022-12-10T04:34:54;20.03;;;16.33;;
20567;SDS011;10442;49.932;11.592;2022-12-10T04:37:22;19.83;;;16.27;;
20567;SDS011;10442;49.932;11.592;2022-12-10T04:39:50;20.10;;;15.13;;
20567;SDS011;10442;49.932;11.592;2022-12-10T04:42:19;19.47;;;17.17;;
20567;SDS011;10442;49.932;11.592;2022-12-10T04:44:48;15.77;;;13.83;;
20567;SDS011;10442;49.932;11.592;2022-12-10T04:47:16;19.40;;;16.63;;
20567;SDS011;10442;49.932;11.592;2022-12-10T04:49:43;18.67;;;14.83;;
20567;SDS011;10442;49.932;11.592;2022-12-10T04:52:12;18.40;;;14.63;;
20567;SDS011;10442;49.932;11.592;2022-12-10T04:54:41;19.07;;;16.07;;
20567;SDS011;10442;49.932;11.592;2022-12-10T04:57:09;21.10;;;17.23;;
20567;SDS011;10442;49.932;11.592;2022-12-10T04:59:38;18.73;;;16.47;;
20567;SDS011;10442;49.932;11.592;2022-12-10T05:02:05;18.97;;;16.27;;
20567;SDS011;10442;49.932;11.592;2022-12-10T05:04:33;19.63;;;16.07;;
20567;SDS011;10442;49.932;11.592;2022-12-10T05:07:01;17.20;;;15.37;;
20567;SDS011;10442;49.932;11.592;2022-12-10T05:09:28;19.77;;;16.57;;
20567;SDS011;10442;49.932;11.592;2022-12-10T05:11:56;21.67;;;17.07;;
20567;SDS011;10442;49.932;11.592;2022-12-10T05:14:23;18.63;;;16.43;;
20567;SDS011;10442;49.932;11.592;2022-12-10T05:16:51;18.17;;;16.27;;
20567;SDS011;10442;49.932;11.592;2022-12-10T05:19:19;21.10;;;16.63;;
20567;SDS011;10442;49.932;11.592;2022-12-10T05:21:49;19.43;;;16.47;;
20567;SDS011;10442;49.932;11.592;2022-12-10T05:24:35;18.40;;;16.27;;
20567;SDS011;10442;49.932;11.592;2022-12-10T05:27:03;20.13;;;17.03;;
20567;SDS011;10442;49.932;11.592;2022-12-10T05:29:31;20.10;;;17.53;;
20567;SDS011;10442;49.932;11.592;2022-12-10T05:31:59;18.87;;;16.77;;
20567;SDS011;10442;49.932;11.592;2022-12-10T05:34:27;21.73;;;18.00;;
20567;SDS011;10442;49.932;11.592;2022-12-10T05:36:54;20.37;;;17.07;;
20567;SDS011;10442;49.932;11.592;2022-12-10T05:39:22;23.37;;;18.60;;
20567;SDS011;10442;49.932;11.592;2022-12-10T05:41:49;20.13;;;16.83;;
20567;SDS011;10442;49.932;11.592;2022-12-10T05:44:16;19.67;;;15.43;;
20567;SDS011;10442;49.932;11.592;2022-12-10T05:46:44;21.57;;;16.40;;
20567;SDS011;10442;49.932;11.592;2022-12-10T05:49:11;20.00;;;17.53;;
20567;SDS011;10442;49.932;11.592;2022-12-10T05:51:39;18.77;;;16.87;;
20567;SDS011;10442;49.932;11.592;2022-12-10T05:54:06;19.87;;;16.80;;
20567;SDS011;10442;49.932;11.592;2022-12-10T05:56:36;21.97;;;16.30;;
20567;SDS011;10442;49.932;11.592;2022-12-10T05:59:04;20.63;;;17.50;;
20567;SDS011;10442;49.932;11.592;2022-12-10T06:01:40;23.73;;;18.83;;
20567;SDS011;10442;49.932;11.592;2022-12-10T06:04:08;19.73;;;17.40;;
20567;SDS011;10442;49.932;11.592;2022-12-10T06:06:36;19.03;;;16.13;;
20567;SDS011;10442;49.932;11.592;2022-12-10T06:09:05;25.27;;;19.47;;
20567;SDS011;10442;49.932;11.592;2022-12-10T06:11:37;20.70;;;17.27;;
20567;SDS011;10442;49.932;11.592;2022-12-10T06:14:05;21.90;;;17.60;;
20567;SDS011;10442;49.932;11.592;2022-12-10T06:16:32;20.90;;;17.23;;
20567;SDS011;10442;49.932;11.592;2022-12-10T06:19:00;21.80;;;19.47;;
20567;SDS011;10442;49.932;11.592;2022-12-10T06:21:28;21.73;;;16.60;;
20567;SDS011;10442;49.932;11.592;2022-12-10T06:23:55;18.60;;;15.90;;
20567;SDS011;10442;49.932;11.592;2022-12-10T06:26:24;18.60;;;16.60;;
20567;SDS011;10442;49.932;11.592;2022-12-10T06:28:52;20.80;;;16.00;;
20567;SDS011;10442;49.932;11.592;2022-12-10T06:31:21;19.50;;;16.90;;
20567;SDS011;10442;49.932;11.592;2022-12-10T06:33:50;19.83;;;16.87;;
20567;SDS011;10442;49.932;11.592;2022-12-10T06:36:18;23.13;;;17.43;;
20567;SDS011;10442;49.932;11.592;2022-12-10T06:38:47;21.60;;;16.60;;
20567;SDS011;10442;49.932;11.592;2022-12-10T06:41:16;20.17;;;16.87;;
20567;SDS011;10442;49.932;11.592;2022-12-10T06:43:44;18.20;;;15.50;;
20567;SDS011;10442;49.932;11.592;2022-12-10T06:46:13;18.87;;;15.87;;
20567;SDS011;10442;49.932;11.592;2022-12-10T06:48:47;20.10;;;16.77;;
20567;SDS011;10442;49.932;11.592;2022-12-10T06:51:14;18.33;;;16.17;;
20567;SDS011;10442;49.932;11.592;2022-12-10T06:53:44;17.00;;;14.73;;
20567;SDS011;10442;49.932;11.592;2022-12-10T06:56:13;18.43;;;15.77;;
20567;SDS011;10442;49.932;11.592;2022-12-10T06:58:42;20.80;;;16.60;;
20567;SDS011;10442;49.932;11.592;2022-12-10T07:01:11;19.37;;;17.23;;
20567;SDS011;10442;49.932;11.592;2022-12-10T07:03:40;21.97;;;18.03;;
20567;SDS011;10442;49.932;11.592;2022-12-10T07:06:09;19.73;;;15.80;;
20567;SDS011;10442;49.932;11.592;2022-12-10T07:08:38;18.87;;;16.73;;
20567;SDS011;10442;49.932;11.592;2022-12-10T07:11:06;19.57;;;16.40;;
20567;SDS011;10442;49.932;11.592;2022-12-10T07:13:39;20.47;;;17.20;;
20567;SDS011;10442;49.932;11.592;2022-12-10T07:16:14;18.57;;;16.33;;
20567;SDS011;10442;49.932;11.592;2022-12-10T07:18:42;20.13;;;15.60;;
20567;SDS011;10442;49.932;11.592;2022-12-10T07:21:22;22.37;;;17.50;;
20567;SDS011;10442;49.932;11.592;2022-12-10T07:24:03;17.00;;;15.17;;
20567;SDS011;10442;49.932;11.592;2022-12-10T07:26:33;20.23;;;15.33;;
20567;SDS011;10442;49.932;11.592;2022-12-10T07:29:03;17.43;;;15.13;;
20567;SDS011;10442;49.932;11.592;2022-12-10T07:31:32;21.83;;;16.17;;
20567;SDS011;10442;49.932;11.592;2022-12-10T07:34:00;20.23;;;17.93;;
20567;SDS011;10442;49.932;11.592;2022-12-10T07:36:28;18.80;;;16.57;;
20567;SDS011;10442;49.932;11.592;2022-12-10T07:38:56;20.73;;;17.67;;
20567;SDS011;10442;49.932;11.592;2022-12-10T07:41:23;20.23;;;17.20;;
20567;SDS011;10442;49.932;11.592;2022-12-10T07:43:52;25.33;;;16.60;;
20567;SDS011;10442;49.932;11.592;2022-12-10T07:46:21;25.67;;;17.40;;
20567;SDS011;10442;49.932;11.592;2022-12-10T07:48:50;20.10;;;17.30;;
20567;SDS011;10442;49.932;11.592;2022-12-10T07:51:18;19.00;;;16.77;;
20567;SDS011;10442;49.932;11.592;2022-12-10T07:53:48;19.97;;;16.40;;
20567;SDS011;10442;49.932;11.592;2022-12-10T07:56:17;20.00;;;16.77;;
20567;SDS011;10442;49.932;11.592;2022-12-10T07:58:45;17.97;;;15.37;;
20567;SDS011;10442;49.932;11.592;2022-12-10T08:01:14;20.57;;;16.77;;
20567;SDS011;10442;49.932;11.592;2022-12-10T08:03:44;18.97;;;16.73;;
20567;SDS011;10442;49.932;11.592;2022-12-10T08:06:13;19.87;;;16.67;;
20567;SDS011;10442;49.932;11.592;2022-12-10T08:08:43;18.37;;;16.23;;
20567;SDS011;10442;49.932;11.592;2022-12-10T08:11:11;22.13;;;17.50;;
20567;SDS011;10442;49.932;11.592;2022-12-10T08:13:41;19.53;;;17.37;;
20567;SDS011;10442;49.932;11.592;2022-12-10T08:16:13;20.17;;;16.13;;
20567;SDS011;10442;49.932;11.592;2022-12-10T08:18:42;17.97;;;15.90;;
20567;SDS011;10442;49.932;11.592;2022-12-10T08:21:12;20.00;;;17.90;;
20567;SDS011;10442;49.932;11.592;2022-12-10T08:23:45;19.03;;;16.37;;
20567;SDS011;10442;49.932;11.592;2022-12-10T08:26:17;20.03;;;16.87;;
20567;SDS011;10442;49.932;11.592;2022-12-10T08:28:49;19.47;;;16.53;;
20567;SDS011;10442;49.932;11.592;2022-12-10T08:31:17;19.37;;;17.17;;
20567;SDS011;10442;49.932;11.592;2022-12-10T08:33:46;19.63;;;16.53;;
20567;SDS011;10442;49.932;11.592;2022-12-10T08:36:15;21.33;;;19.03;;
20567;SDS011;10442;49.932;11.592;2022-12-10T08:38:44;21.33;;;16.67;;
20567;SDS011;10442;49.932;11.592;2022-12-10T08:41:13;23.00;;;18.60;;
20567;SDS011;10442;49.932;11.592;2022-12-10T08:43:43;21.77;;;18.50;;
20567;SDS011;10442;49.932;11.592;2022-12-10T08:46:11;20.80;;;17.00;;
20567;SDS011;10442;49.932;11.592;2022-12-10T08:48:40;21.43;;;18.03;;
20567;SDS011;10442;49.932;11.592;2022-12-10T08:51:08;20.13;;;16.93;;
20567;SDS011;10442;49.932;11.592;2022-12-10T08:53:38;23.50;;;18.87;;
20567;SDS011;10442;49.932;11.592;2022-12-10T08:56:06;20.87;;;17.83;;
20567;SDS011;10442;49.932;11.592;2022-12-10T08:58:34;22.77;;;18.60;;
20567;SDS011;10442;49.932;11.592;2022-12-10T09:01:14;23.70;;;19.93;;
20567;SDS011;10442;49.932;11.592;2022-12-10T09:03:44;24.20;;;17.97;;
20567;SDS011;10442;49.932;11.592;2022-12-10T09:06:13;21.83;;;18.97;;
20567;SDS011;10442;49.932;11.592;2022-12-10T09:08:43;21.17;;;17.00;;
20567;SDS011;10442;49.932;11.592;2022-12-10T09:11:18;23.17;;;19.70;;
20567;SDS011;10442;49.932;11.592;2022-12-10T09:13:49;22.00;;;17.80;;
20567;SDS011;10442;49.932;11.592;2022-12-10T09:16:17;19.00;;;16.97;;
20567;SDS011;10442;49.932;11.592;2022-12-10T09:18:45;21.90;;;19.47;;
20567;SDS011;10442;49.932;11.592;2022-12-10T09:21:14;23.63;;;19.73;;
20567;SDS011;10442;49.932;11.592;2022-12-10T09:23:43;23.60;;;20.07;;
20567;SDS011;10442;49.932;11.592;2022-12-10T09:26:11;25.13;;;20.60;;
20567;SDS011;10442;49.932;11.592;2022-12-10T09:28:41;24.73;;;19.57;;
20567;SDS011;10442;49.932;11.592;2022-12-10T09:31:09;23.67;;;18.53;;
20567;SDS011;10442;49.932;11.592;2022-12-10T09:33:46;23.90;;;18.93;;
20567;SDS011;10442;49.932;11.592;2022-12-10T09:36:16;24.97;;;19.83;;
20567;SDS011;10442;49.932;11.592;2022-12-10T09:38:44;26.63;;;20.93;;
20567;SDS011;10442;49.932;11.592;2022-12-10T09:43:48;26.23;;;20.37;;
20567;SDS011;10442;49.932;11.592;2022-12-10T09:52:05;25.93;;;20.20;;
20567;SDS011;10442;49.932;11.592;2022-12-10T09:54:48;22.90;;;20.47;;
20567;SDS011;10442;49.932;11.592;2022-12-10T09:59:55;23.53;;;20.27;;
20567;SDS011;10442;49.932;11.592;2022-12-10T10:02:24;29.17;;;22.13;;
20567;SDS011;10442;49.932;11.592;2022-12-10T10:04:56;23.37;;;20.63;;
20567;SDS011;10442;49.932;11.592;2022-12-10T10:07:33;27.33;;;24.07;;
20567;SDS011;10442;49.932;11.592;2022-12-10T10:10:05;21.50;;;19.20;;
20567;SDS011;10442;49.932;11.592;2022-12-10T10:12:38;26.93;;;22.13;;
20567;SDS011;10442;49.932;11.592;2022-12-10T10:15:14;24.33;;;20.50;;
20567;SDS011;10442;49.932;11.592;2022-12-10T10:17:45;27.83;;;20.33;;
20567;SDS011;10442;49.932;11.592;2022-12-10T10:20:13;25.77;;;21.03;;
20567;SDS011;10442;49.932;11.592;2022-12-10T10:22:42;26.17;;;21.57;;
20567;SDS011;10442;49.932;11.592;2022-12-10T10:25:13;24.40;;;19.80;;
20567;SDS011;10442;49.932;11.592;2022-12-10T10:27:43;26.53;;;19.73;;
20567;SDS011;10442;49.932;11.592;2022-12-10T10:30:19;25.70;;;20.70;;
20567;SDS011;10442;49.932;11.592;2022-12-10T10:32:53;24.73;;;20.47;;
20567;SDS011;10442;49.932;11.592;2022-12-10T10:37:56;24.47;;;20.50;;
20567;SDS011;10442;49.932;11.592;2022-12-10T10:40:41;24.13;;;20.40;;
20567;SDS011;10442;49.932;11.592;2022-12-10T10:43:58;26.67;;;22.03;;
20567;SDS011;10442;49.932;11.592;2022-12-10T10:48:38;26.83;;;19.53;;
20567;SDS011;10442;49.932;11.592;2022-12-10T10:53:41;24.33;;;20.23;;
20567;SDS011;10442;49.932;11.592;2022-12-10T10:56:14;24.57;;;21.07;;
20567;SDS011;10442;49.932;11.592;2022-12-10T11:01:48;26.53;;;21.13;;
20567;SDS011;10442;49.932;11.592;2022-12-10T11:04:44;28.27;;;22.07;;
20567;SDS011;10442;49.932;11.592;2022-12-10T11:07:18;24.57;;;21.60;;
20567;SDS011;10442;49.932;11.592;2022-12-10T11:09:49;26.20;;;20.83;;
20567;SDS011;10442;49.932;11.592;2022-12-10T11:12:23;25.00;;;20.97;;
20567;SDS011;10442;49.932;11.592;2022-12-10T11:15:49;25.90;;;21.50;;
20567;SDS011;10442;49.932;11.592;2022-12-10T11:17:58;27.17;;;22.87;;
20567;SDS011;10442;49.932;11.592;2022-12-10T11:20:28;28.37;;;23.50;;
20567;SDS011;10442;49.932;11.592;2022-12-10T11:22:58;28.70;;;23.70;;
20567;SDS011;10442;49.932;11.592;2022-12-10T11:28:24;25.63;;;22.60;;
20567;SDS011;10442;49.932;11.592;2022-12-10T11:34:05;26.23;;;21.30;;
20567;SDS011;10442;49.932;11.592;2022-12-10T11:51:16;27.67;;;22.83;;
20567;SDS011;10442;49.932;11.592;2022-12-10T11:59:43;30.33;;;25.03;;
20567;SDS011;10442;49.932;11.592;2022-12-10T12:02:40;23.63;;;21.13;;
20567;SDS011;10442;49.932;11.592;2022-12-10T12:10:54;27.13;;;23.30;;
20567;SDS011;10442;49.932;11.592;2022-12-10T12:13:40;29.70;;;24.40;;
20567;SDS011;10442;49.932;11.592;2022-12-10T12:16:18;30.40;;;25.87;;
20567;SDS011;10442;49.932;11.592;2022-12-10T12:19:02;29.10;;;24.70;;
20567;SDS011;10442;49.932;11.592;2022-12-10T12:21:32;29.13;;;23.83;;
20567;SDS011;10442;49.932;11.592;2022-12-10T12:26:36;31.50;;;24.37;;
20567;SDS011;10442;49.932;11.592;2022-12-10T12:29:20;29.43;;;26.23;;
20567;SDS011;10442;49.932;11.592;2022-12-10T12:31:57;26.70;;;22.87;;
20567;SDS011;10442;49.932;11.592;2022-12-10T12:37:00;26.63;;;22.43;;
20567;SDS011;10442;49.932;11.592;2022-12-10T12:39:49;27.87;;;22.40;;
20567;SDS011;10442;49.932;11.592;2022-12-10T12:42:27;21.47;;;16.73;;
20567;SDS011;10442;49.932;11.592;2022-12-10T12:45:01;26.27;;;19.07;;
20567;SDS011;10442;49.932;11.592;2022-12-10T12:47:39;23.77;;;17.77;;
20567;SDS011;10442;49.932;11.592;2022-12-10T12:50:27;32.60;;;20.73;;
20567;SDS011;10442;49.932;11.592;2022-12-10T12:53:16;22.40;;;17.43;;
20567;SDS011;10442;49.932;11.592;2022-12-10T12:55:55;23.37;;;18.57;;
20567;SDS011;10442;49.932;11.592;2022-12-10T13:04:28;18.77;;;15.53;;
20567;SDS011;10442;49.932;11.592;2022-12-10T13:09:46;22.20;;;17.33;;
20567;SDS011;10442;49.932;11.592;2022-12-10T13:15:13;21.17;;;15.97;;
20567;SDS011;10442;49.932;11.592;2022-12-10T13:20:33;24.50;;;18.40;;
20567;SDS011;10442;49.932;11.592;2022-12-10T13:28:27;21.13;;;16.10;;
20567;SDS011;10442;49.932;11.592;2022-12-10T13:33:48;19.43;;;14.77;;
20567;SDS011;10442;49.932;11.592;2022-12-10T13:36:20;15.93;;;13.93;;
20567;SDS011;10442;49.932;11.592;2022-12-10T13:41:31;20.77;;;16.10;;
20567;SDS011;10442;49.932;11.592;2022-12-10T13:44:45;18.60;;;14.90;;
20567;SDS011;10442;49.932;11.592;2022-12-10T13:47:24;21.47;;;15.00;;
20567;SDS011;10442;49.932;11.592;2022-12-10T13:49:59;16.83;;;13.27;;
20567;SDS011;10442;49.932;11.592;2022-12-10T13:58:04;17.13;;;13.60;;
20567;SDS011;10442;49.932;11.592;2022-12-10T14:03:37;19.67;;;13.97;;
20567;SDS011;10442;49.932;11.592;2022-12-10T14:06:22;16.43;;;13.27;;
20567;SDS011;10442;49.932;11.592;2022-12-10T14:11:34;19.77;;;14.80;;
20567;SDS011;10442;49.932;11.592;2022-12-10T14:14:39;16.67;;;14.33;;
20567;SDS011;10442;49.932;11.592;2022-12-10T14:17:12;19.27;;;15.97;;
20567;SDS011;10442;49.932;11.592;2022-12-10T14:19:43;18.30;;;15.07;;
20567;SDS011;10442;49.932;11.592;2022-12-10T14:22:15;16.03;;;12.87;;
20567;SDS011;10442;49.932;11.592;2022-12-10T14:24:47;18.17;;;14.60;;
20567;SDS011;10442;49.932;11.592;2022-12-10T14:27:18;19.50;;;14.07;;
20567;SDS011;10442;49.932;11.592;2022-12-10T14:29:51;19.00;;;14.10;;
20567;SDS011;10442;49.932;11.592;2022-12-10T14:32:27;17.93;;;14.03;;
20567;SDS011;10442;49.932;11.592;2022-12-10T14:35:01;17.10;;;13.77;;
20567;SDS011;10442;49.932;11.592;2022-12-10T14:37:31;22.07;;;14.43;;
20567;SDS011;10442;49.932;11.592;2022-12-10T14:40:05;18.63;;;14.03;;
20567;SDS011;10442;49.932;11.592;2022-12-10T14:42:38;18.27;;;13.20;;
20567;SDS011;10442;49.932;11.592;2022-12-10T14:45:06;16.13;;;14.20;;
20567;SDS011;10442;49.932;11.592;2022-12-10T14:47:39;17.03;;;14.60;;
20567;SDS011;10442;49.932;11.592;2022-12-10T14:50:15;17.33;;;13.90;;
20567;SDS011;10442;49.932;11.592;2022-12-10T14:52:45;16.57;;;13.70;;
20567;SDS011;10442;49.932;11.592;2022-12-10T14:55:19;16.57;;;13.37;;
20567;SDS011;10442;49.932;11.592;2022-12-10T14:57:51;16.67;;;14.40;;
20567;SDS011;10442;49.932;11.592;2022-12-10T15:00:26;18.80;;;13.37;;
20567;SDS011;10442;49.932;11.592;2022-12-10T15:02:54;19.03;;;12.13;;
20567;SDS011;10442;49.932;11.592;2022-12-10T15:05:28;19.40;;;14.30;;
20567;SDS011;10442;49.932;11.592;2022-12-10T15:08:00;17.30;;;14.47;;
20567;SDS011;10442;49.932;11.592;2022-12-10T15:10:37;17.70;;;12.53;;
20567;SDS011;10442;49.932;11.592;2022-12-10T15:13:07;16.07;;;11.93;;
20567;SDS011;10442;49.932;11.592;2022-12-10T15:15:47;15.03;;;11.07;;
20567;SDS011;10442;49.932;11.592;2022-12-10T15:18:18;13.23;;;11.83;;
20567;SDS011;10442;49.932;11.592;2022-12-10T15:20:48;17.50;;;12.40;;
20567;SDS011;10442;49.932;11.592;2022-12-10T15:26:04;13.30;;;11.27;;
20567;SDS011;10442;49.932;11.592;2022-12-10T15:28:48;13.30;;;11.50;;
20567;SDS011;10442;49.932;11.592;2022-12-10T15:33:59;11.47;;;10.27;;
20567;SDS011;10442;49.932;11.592;2022-12-10T15:36:36;11.30;;;9.77;;
20567;SDS011;10442;49.932;11.592;2022-12-10T15:41:40;14.03;;;10.67;;
20567;SDS011;10442;49.932;11.592;2022-12-10T15:44:30;15.10;;;11.70;;
20567;SDS011;10442;49.932;11.592;2022-12-10T15:47:19;12.20;;;10.77;;
20567;SDS011;10442;49.932;11.592;2022-12-10T15:49:49;14.60;;;11.60;;
20567;SDS011;10442;49.932;11.592;2022-12-10T15:52:22;10.63;;;9.53;;
20567;SDS011;10442;49.932;11.592;2022-12-10T15:54:51;11.17;;;10.00;;
20567;SDS011;10442;49.932;11.592;2022-12-10T15:59:53;11.17;;;9.90;;
20567;SDS011;10442;49.932;11.592;2022-12-10T16:02:32;12.30;;;10.70;;
20567;SDS011;10442;49.932;11.592;2022-12-10T16:05:15;11.30;;;9.10;;
20567;SDS011;10442;49.932;11.592;2022-12-10T16:07:45;13.00;;;9.93;;
20567;SDS011;10442;49.932;11.592;2022-12-10T16:10:15;13.63;;;9.73;;
20567;SDS011;10442;49.932;11.592;2022-12-10T16:12:45;10.80;;;9.47;;
20567;SDS011;10442;49.932;11.592;2022-12-10T16:15:17;11.23;;;10.13;;
20567;SDS011;10442;49.932;11.592;2022-12-10T16:17:47;11.40;;;9.67;;
20567;SDS011;10442;49.932;11.592;2022-12-10T16:22:50;12.97;;;10.10;;
20567;SDS011;10442;49.932;11.592;2022-12-10T16:25:18;11.00;;;9.83;;
20567;SDS011;10442;49.932;11.592;2022-12-10T16:27:47;11.73;;;9.87;;
20567;SDS011;10442;49.932;11.592;2022-12-10T16:30:22;10.97;;;9.83;;
20567;SDS011;10442;49.932;11.592;2022-12-10T16:32:52;10.43;;;9.33;;
20567;SDS011;10442;49.932;11.592;2022-12-10T16:35:21;11.23;;;10.13;;
20567;SDS011;10442;49.932;11.592;2022-12-10T16:37:49;10.60;;;9.50;;
20567;SDS011;10442;49.932;11.592;2022-12-10T16:40:22;10.53;;;9.50;;
20567;SDS011;10442;49.932;11.592;2022-12-10T16:42:50;11.53;;;9.87;;
20567;SDS011;10442;49.932;11.592;2022-12-10T16:47:47;10.87;;;9.77;;